createdAt,value
2023-02-02T00:02:23.670Z,2.70
2023-02-02T00:04:50.913Z,0.95
2023-02-02T00:07:18.098Z,6.47
2023-02-02T00:09:45.326Z,5.50
2023-02-02T00:12:12.538Z,2.40
2023-02-02T00:14:39.720Z,1.23
2023-02-02T00:17:10.866Z,2.22
2023-02-02T00:19:39.389Z,2.03
2023-02-02T00:22:06.624Z,4.30
2023-02-02T00:24:33.807Z,3.40
2023-02-02T00:27:01.028Z,0.82
2023-02-02T00:29:30.441Z,4.00
2023-02-02T00:31:58.018Z,2.58
2023-02-02T00:34:25.363Z,2.20
2023-02-02T00:36:54.058Z,2.45
2023-02-02T00:39:23.080Z,2.13
2023-02-02T00:41:50.350Z,3.80
2023-02-02T00:44:17.521Z,4.07
2023-02-02T00:46:44.896Z,4.13
2023-02-02T00:49:12.339Z,3.90
2023-02-02T00:51:39.685Z,3.20
2023-02-02T00:54:08.520Z,4.43
2023-02-02T00:56:35.747Z,4.30
2023-02-02T00:59:03.050Z,3.13
2023-02-02T01:01:30.303Z,4.05
2023-02-02T01:03:57.612Z,3.35
2023-02-02T01:06:24.831Z,2.55
2023-02-02T01:08:52.121Z,2.42
2023-02-02T01:11:21.325Z,2.05
2023-02-02T01:13:48.575Z,2.65
2023-02-02T01:16:15.877Z,3.47
2023-02-02T01:18:43.688Z,1.27
2023-02-02T01:21:12.299Z,1.75
2023-02-02T01:23:40.312Z,1.77
2023-02-02T01:26:09.281Z,1.15
2023-02-02T01:28:38.721Z,1.80
2023-02-02T01:31:08.050Z,0.60
2023-02-02T01:33:35.604Z,2.15
2023-02-02T01:36:06.504Z,1.02
2023-02-02T01:38:34.212Z,1.20
2023-02-02T01:41:02.195Z,1.17
2023-02-02T01:43:31.461Z,0.82
2023-02-02T01:46:00.566Z,1.02
2023-02-02T01:48:31.510Z,1.42
2023-02-02T01:51:02.602Z,1.23
2023-02-02T01:53:30.538Z,1.48
2023-02-02T01:55:59.884Z,1.27
2023-02-02T01:58:30.067Z,0.90
2023-02-02T02:00:57.665Z,3.38
2023-02-02T02:03:29.564Z,2.85
2023-02-02T02:08:29.642Z,1.23
2023-02-02T02:10:57.758Z,1.42
2023-02-02T02:13:27.261Z,2.08
2023-02-02T02:16:04.504Z,3.55
2023-02-02T02:18:43.711Z,2.53
2023-02-02T02:21:46.975Z,2.78
2023-02-02T02:24:50.547Z,1.33
2023-02-02T02:27:54.809Z,2.17
2023-02-02T02:30:59.724Z,1.48
2023-02-02T02:33:35.822Z,1.52
2023-02-02T02:36:10.649Z,3.08
2023-02-02T02:38:44.233Z,1.40
2023-02-02T02:41:16.907Z,2.35
2023-02-02T02:43:52.327Z,2.00
2023-02-02T02:46:21.311Z,2.60
2023-02-02T02:48:49.900Z,1.40
2023-02-02T02:51:42.789Z,2.85
2023-02-02T02:54:14.339Z,2.15
2023-02-02T02:56:56.800Z,1.60
2023-02-02T02:59:35.955Z,2.30
2023-02-02T03:02:17.618Z,2.30
2023-02-02T03:04:55.797Z,2.53
2023-02-02T03:07:29.133Z,2.00
2023-02-02T03:09:58.853Z,3.00
2023-02-02T03:12:26.054Z,3.03
2023-02-02T03:14:53.412Z,4.40
2023-02-02T03:17:20.667Z,2.13
2023-02-02T03:19:49.209Z,2.85
2023-02-02T03:22:16.436Z,2.58
2023-02-02T03:24:43.733Z,6.68
2023-02-02T03:27:11.195Z,4.93
2023-02-02T03:29:38.414Z,4.25
2023-02-02T03:32:05.743Z,5.85
2023-02-02T03:34:33.030Z,2.88
2023-02-02T03:37:01.617Z,3.80
2023-02-02T03:39:28.807Z,3.60
2023-02-02T03:41:56.020Z,3.17
2023-02-02T03:44:23.381Z,4.60
2023-02-02T03:46:53.708Z,6.28
2023-02-02T03:49:21.008Z,4.25
2023-02-02T03:51:48.267Z,4.25
2023-02-02T03:54:16.848Z,3.83
2023-02-02T03:56:44.052Z,4.22
2023-02-02T03:59:11.257Z,3.17
2023-02-02T04:01:38.479Z,4.70
2023-02-02T04:04:05.724Z,5.03
2023-02-02T04:06:32.996Z,4.95
2023-02-02T04:09:00.228Z,6.93
2023-02-02T04:11:28.837Z,5.55
2023-02-02T04:13:56.036Z,6.50
2023-02-02T04:16:23.473Z,4.82
2023-02-02T04:18:50.808Z,5.75
2023-02-02T04:21:18.078Z,5.40
2023-02-02T04:23:45.305Z,6.10
2023-02-02T04:26:12.526Z,6.13
2023-02-02T04:28:41.139Z,5.28
2023-02-02T04:31:08.446Z,3.17
2023-02-02T04:33:35.804Z,3.55
2023-02-02T04:36:03.899Z,6.45
2023-02-02T04:38:31.173Z,6.53
2023-02-02T04:40:58.367Z,6.75
2023-02-02T04:43:25.648Z,6.05
2023-02-02T04:45:56.882Z,7.05
2023-02-02T04:48:24.196Z,7.50
2023-02-02T04:50:51.412Z,9.10
2023-02-02T04:53:18.560Z,6.45
2023-02-02T04:55:45.755Z,7.22
2023-02-02T04:58:12.961Z,7.25
2023-02-02T05:00:40.270Z,5.20
2023-02-02T05:03:08.863Z,7.07
2023-02-02T05:05:36.116Z,4.50
2023-02-02T05:08:03.733Z,3.20
2023-02-02T05:10:32.097Z,5.90
2023-02-02T05:12:59.308Z,6.20
2023-02-02T05:15:26.843Z,5.07
2023-02-02T05:17:54.100Z,4.95
2023-02-02T05:20:22.688Z,5.18
2023-02-02T05:22:50.060Z,5.15
2023-02-02T05:25:17.585Z,5.78
2023-02-02T05:27:45.145Z,6.13
2023-02-02T05:30:13.875Z,5.80
2023-02-02T05:32:41.087Z,7.10
2023-02-02T05:35:10.043Z,7.22
2023-02-02T05:37:38.700Z,7.05
2023-02-02T05:40:06.820Z,8.80
2023-02-02T05:42:33.971Z,9.70
2023-02-02T05:45:01.236Z,6.25
2023-02-02T05:47:28.512Z,10.30
2023-02-02T05:49:55.812Z,6.53
2023-02-02T05:52:25.362Z,6.45
2023-02-02T05:54:53.921Z,5.30
2023-02-02T05:57:21.108Z,6.10
2023-02-02T05:59:48.333Z,8.82
2023-02-02T06:02:15.617Z,8.00
2023-02-02T06:04:42.818Z,10.57
2023-02-02T06:07:10.113Z,10.98
2023-02-02T06:09:37.283Z,11.25
2023-02-02T06:12:06.672Z,9.73
2023-02-02T06:14:33.866Z,9.15
2023-02-02T06:17:01.161Z,13.23
2023-02-02T06:19:28.411Z,18.80
2023-02-02T06:21:55.579Z,15.02
2023-02-02T06:24:22.763Z,14.18
2023-02-02T06:26:50.072Z,14.73
2023-02-02T06:29:18.677Z,15.85
2023-02-02T06:31:45.972Z,14.93
2023-02-02T06:34:13.798Z,15.50
2023-02-02T06:36:41.958Z,12.82
2023-02-02T06:39:09.232Z,18.40
2023-02-02T06:41:36.789Z,20.80
2023-02-02T06:44:04.110Z,14.82
2023-02-02T06:46:32.777Z,15.80
2023-02-02T06:49:00.164Z,14.30
2023-02-02T06:51:27.434Z,14.68
2023-02-02T06:53:54.700Z,13.55
2023-02-02T06:56:22.013Z,13.07
2023-02-02T06:58:49.515Z,14.27
2023-02-02T07:01:16.832Z,12.23
2023-02-02T07:03:48.074Z,16.95
2023-02-02T07:06:17.388Z,12.15
2023-02-02T07:08:44.985Z,12.23
2023-02-02T07:11:15.916Z,13.25
2023-02-02T07:13:44.181Z,8.43
2023-02-02T07:16:11.487Z,10.05
2023-02-02T07:18:38.801Z,9.93
2023-02-02T07:21:07.473Z,11.00
2023-02-02T07:23:35.028Z,14.07
2023-02-02T07:26:03.729Z,10.95
2023-02-02T07:28:31.165Z,12.70
2023-02-02T07:30:58.491Z,11.98
2023-02-02T07:33:25.798Z,8.27
2023-02-02T07:35:53.354Z,11.73
2023-02-02T07:38:21.918Z,10.18
2023-02-02T07:40:49.163Z,11.15
2023-02-02T07:43:16.373Z,8.65
2023-02-02T07:45:43.540Z,9.48
2023-02-02T07:48:10.745Z,5.05
2023-02-02T07:50:38.014Z,7.22
2023-02-02T07:53:05.285Z,7.53
2023-02-02T07:55:33.819Z,7.38
2023-02-02T07:58:01.092Z,8.38
2023-02-02T08:00:28.713Z,8.43
2023-02-02T08:02:55.957Z,5.75
2023-02-02T08:05:23.513Z,5.35
2023-02-02T08:07:51.011Z,11.77
2023-02-02T08:10:18.340Z,6.22
2023-02-02T08:12:46.895Z,6.07
2023-02-02T08:15:14.357Z,8.25
2023-02-02T08:17:44.854Z,5.53
2023-02-02T08:20:13.222Z,8.77
2023-02-02T08:22:40.477Z,8.98
2023-02-02T08:25:08.752Z,8.38
2023-02-02T08:27:37.895Z,7.78
2023-02-02T08:30:07.695Z,10.25
2023-02-02T08:32:34.915Z,6.75
2023-02-02T08:35:02.149Z,7.15
2023-02-02T08:37:29.427Z,8.32
2023-02-02T08:39:56.657Z,9.38
2023-02-02T08:42:23.880Z,7.80
2023-02-02T08:46:02.281Z,11.60
2023-02-02T08:47:39.685Z,8.23
2023-02-02T08:50:07.857Z,9.75
2023-02-02T08:52:35.058Z,9.00
2023-02-02T08:55:02.319Z,8.25
2023-02-02T08:57:29.783Z,12.45
2023-02-02T08:59:56.946Z,8.07
2023-02-02T09:02:24.256Z,10.43
2023-02-02T09:04:52.823Z,11.35
2023-02-02T09:07:21.240Z,6.57
2023-02-02T09:09:48.507Z,8.52
2023-02-02T09:12:15.725Z,12.95
2023-02-02T09:14:42.905Z,10.77
2023-02-02T09:17:10.137Z,6.53
2023-02-02T09:19:37.306Z,9.73
2023-02-02T09:22:05.868Z,6.13
2023-02-02T09:24:33.129Z,7.60
2023-02-02T09:27:00.479Z,8.95
2023-02-02T09:29:27.815Z,8.50
2023-02-02T09:31:55.073Z,9.15
2023-02-02T09:34:22.351Z,13.45
2023-02-02T09:36:49.509Z,7.93
2023-02-02T09:39:18.085Z,8.27
2023-02-02T09:42:04.371Z,6.45
2023-02-02T09:44:52.011Z,11.07
2023-02-02T09:47:23.745Z,8.88
2023-02-02T09:49:59.441Z,7.82
2023-02-02T09:52:30.158Z,7.82
2023-02-02T09:55:02.915Z,9.00
2023-02-02T09:57:37.057Z,6.93
2023-02-02T10:00:06.365Z,10.80
2023-02-02T10:02:42.075Z,13.80
2023-02-02T10:05:15.420Z,10.75
2023-02-02T10:07:47.774Z,5.72
2023-02-02T10:10:22.145Z,7.70
2023-02-02T10:12:54.558Z,6.88
2023-02-02T10:15:29.643Z,8.32
2023-02-02T10:18:06.096Z,6.63
2023-02-02T10:20:41.602Z,4.93
2023-02-02T10:23:18.079Z,4.68
2023-02-02T10:25:55.957Z,8.30
2023-02-02T10:28:37.766Z,6.88
2023-02-02T10:31:16.203Z,4.28
2023-02-02T10:33:50.964Z,9.45
2023-02-02T10:36:29.616Z,5.07
2023-02-02T10:39:03.664Z,5.70
2023-02-02T10:41:41.495Z,9.23
2023-02-02T10:44:21.111Z,6.25
2023-02-02T10:46:51.448Z,5.57
2023-02-02T10:49:25.983Z,9.23
2023-02-02T10:51:57.532Z,7.18
2023-02-02T10:54:57.388Z,5.20
2023-02-02T10:57:50.010Z,6.30
2023-02-02T11:00:23.319Z,6.40
2023-02-02T11:02:52.265Z,6.65
2023-02-02T11:05:22.516Z,14.25
2023-02-02T11:07:51.830Z,5.75
2023-02-02T11:10:19.049Z,9.35
2023-02-02T11:12:49.550Z,4.13
2023-02-02T11:15:25.968Z,6.05
2023-02-02T11:17:53.274Z,5.50
2023-02-02T11:20:31.947Z,13.63
2023-02-02T11:23:01.300Z,5.55
2023-02-02T11:25:31.458Z,6.40
2023-02-02T11:28:01.893Z,7.78
2023-02-02T11:30:33.177Z,3.55
2023-02-02T11:33:20.985Z,3.80
2023-02-02T11:35:54.003Z,4.15
2023-02-02T11:38:21.191Z,8.57
2023-02-02T11:40:54.415Z,4.47
2023-02-02T11:43:26.840Z,7.38
2023-02-02T11:45:57.168Z,5.43
2023-02-02T11:48:28.928Z,3.65
2023-02-02T11:53:27.069Z,3.65
2023-02-02T11:55:56.160Z,7.45
2023-02-02T11:58:26.584Z,5.65
2023-02-02T12:00:57.403Z,4.70
2023-02-02T12:03:28.026Z,4.13
2023-02-02T12:05:55.580Z,3.25
2023-02-02T12:08:23.072Z,3.40
2023-02-02T12:10:58.731Z,6.22
2023-02-02T12:13:40.411Z,4.80
2023-02-02T12:16:24.527Z,2.70
2023-02-02T12:19:15.044Z,3.50
2023-02-02T12:21:53.686Z,4.03
2023-02-02T12:24:29.541Z,6.18
2023-02-02T12:27:06.541Z,5.57
2023-02-02T12:29:52.840Z,23.35
2023-02-02T12:32:28.033Z,8.75
2023-02-02T12:35:08.997Z,3.35
2023-02-02T12:37:51.269Z,5.53
2023-02-02T12:40:38.127Z,2.75
2023-02-02T12:43:14.522Z,2.95
2023-02-02T12:46:11.804Z,6.32
2023-02-02T12:48:53.625Z,6.43
2023-02-02T12:51:35.581Z,4.57
2023-02-02T12:57:05.431Z,5.00
2023-02-02T12:59:58.448Z,95.82
2023-02-02T13:02:35.027Z,8.50
2023-02-02T13:05:23.775Z,9.85
2023-02-02T13:07:56.222Z,6.55
2023-02-02T13:10:28.822Z,9.70
2023-02-02T13:13:01.239Z,8.57
2023-02-02T13:15:34.214Z,4.75
2023-02-02T13:18:10.515Z,5.82
2023-02-02T13:20:42.576Z,5.38
2023-02-02T13:23:16.646Z,5.10
2023-02-02T13:25:48.546Z,11.50
2023-02-02T13:28:25.629Z,5.97
2023-02-02T13:30:56.952Z,4.68
2023-02-02T13:36:00.361Z,4.43
2023-02-02T13:38:29.338Z,5.88
2023-02-02T13:41:00.004Z,9.70
2023-02-02T13:43:45.661Z,4.35
2023-02-02T13:46:25.710Z,6.95
2023-02-02T13:49:00.654Z,6.70
2023-02-02T13:51:42.321Z,5.30
2023-02-02T13:54:55.099Z,6.45
2023-02-02T13:57:41.353Z,4.93
2023-02-02T14:00:15.708Z,5.45
2023-02-02T14:02:46.345Z,7.70
2023-02-02T14:05:24.794Z,7.30
2023-02-02T14:07:57.756Z,9.90
2023-02-02T14:10:28.193Z,10.18
2023-02-02T14:12:56.173Z,9.35
2023-02-02T14:15:37.686Z,8.30
2023-02-02T14:18:05.430Z,10.57
2023-02-02T14:20:46.567Z,11.45
2023-02-02T14:23:51.188Z,8.50
2023-02-02T14:26:39.154Z,8.48
2023-02-02T14:29:37.807Z,9.10
2023-02-02T14:32:30.285Z,13.45
2023-02-02T14:34:59.171Z,11.50
2023-02-02T14:37:41.191Z,11.90
2023-02-02T14:43:11.825Z,12.07
2023-02-02T14:45:39.763Z,16.92
2023-02-02T14:48:11.679Z,15.85
2023-02-02T14:50:47.132Z,13.73
2023-02-02T14:53:23.215Z,12.63
2023-02-02T14:55:59.012Z,13.65
2023-02-02T14:58:31.649Z,16.73
2023-02-02T15:01:08.906Z,20.55
2023-02-02T15:03:55.456Z,15.63
2023-02-02T15:06:32.615Z,12.35
2023-02-02T15:09:42.735Z,16.23
2023-02-02T15:12:27.069Z,13.35
2023-02-02T15:15:03.875Z,22.95
2023-02-02T15:17:45.270Z,13.60
2023-02-02T15:20:16.483Z,15.98
2023-02-02T15:22:49.667Z,13.82
2023-02-02T15:25:22.769Z,14.25
2023-02-02T15:27:57.723Z,16.00
2023-02-02T15:30:28.344Z,15.13
2023-02-02T15:32:56.495Z,18.48
2023-02-02T15:35:28.904Z,18.90
2023-02-02T15:38:00.672Z,17.27
2023-02-02T15:40:30.436Z,16.75
2023-02-02T15:43:03.164Z,16.10
2023-02-02T15:45:44.066Z,17.33
2023-02-02T15:48:23.689Z,20.23
2023-02-02T15:50:53.806Z,14.63
2023-02-02T15:53:24.551Z,31.73
2023-02-02T15:55:52.915Z,26.60
2023-02-02T15:58:24.887Z,17.83
2023-02-02T16:01:01.780Z,21.75
2023-02-02T16:03:40.612Z,20.15
2023-02-02T16:06:08.183Z,33.13
2023-02-02T16:08:37.609Z,40.35
2023-02-02T16:11:09.126Z,29.85
2023-02-02T16:13:39.164Z,16.80
2023-02-02T16:16:20.401Z,34.60
2023-02-02T16:18:48.127Z,24.50
2023-02-02T16:21:23.917Z,57.47
2023-02-02T16:23:52.494Z,17.48
2023-02-02T16:26:25.028Z,33.00
2023-02-02T16:28:53.828Z,46.40
2023-02-02T16:31:21.578Z,28.90
2023-02-02T16:33:48.905Z,38.28
2023-02-02T16:36:24.452Z,33.17
2023-02-02T16:38:53.882Z,23.15
2023-02-02T16:41:32.506Z,123.80
2023-02-02T16:44:30.109Z,61.33
2023-02-02T16:46:58.615Z,40.17
2023-02-02T16:49:27.093Z,61.88
2023-02-02T16:52:18.894Z,40.50
2023-02-02T16:54:51.767Z,21.13
2023-02-02T16:57:22.753Z,28.10
2023-02-02T16:59:56.423Z,24.43
2023-02-02T17:02:29.061Z,20.10
2023-02-02T17:05:00.658Z,15.15
2023-02-02T17:07:29.161Z,26.15
2023-02-02T17:10:20.063Z,19.23
2023-02-02T17:12:47.325Z,13.50
2023-02-02T17:15:34.695Z,19.85
2023-02-02T17:18:04.416Z,22.73
2023-02-02T17:20:32.670Z,20.38
2023-02-02T17:23:03.460Z,18.95
2023-02-02T17:25:35.289Z,18.88
2023-02-02T17:28:09.767Z,19.85
2023-02-02T17:30:39.873Z,12.55
2023-02-02T17:33:11.094Z,15.23
2023-02-02T17:35:52.950Z,16.55
2023-02-02T17:38:22.201Z,11.48
2023-02-02T17:40:50.173Z,17.25
2023-02-02T17:43:17.447Z,15.80
2023-02-02T17:45:46.225Z,13.77
2023-02-02T17:48:14.393Z,18.35
2023-02-02T17:50:43.105Z,20.70
2023-02-02T17:53:11.933Z,29.73
2023-02-02T17:55:41.719Z,20.92
2023-02-02T17:58:10.069Z,12.15
2023-02-02T18:00:38.879Z,18.75
2023-02-02T18:03:11.976Z,12.88
2023-02-02T18:05:42.809Z,14.68
2023-02-02T18:08:11.479Z,18.20
2023-02-02T18:10:38.920Z,14.57
2023-02-02T18:13:06.695Z,17.73
2023-02-02T18:15:34.108Z,17.48
2023-02-02T18:18:01.389Z,15.52
2023-02-02T18:20:30.055Z,18.40
2023-02-02T18:22:57.319Z,23.13
2023-02-02T18:25:25.642Z,16.00
2023-02-02T18:27:54.811Z,19.52
2023-02-02T18:30:23.822Z,17.08
2023-02-02T18:32:51.380Z,37.75
2023-02-02T18:35:18.864Z,58.15
2023-02-02T18:37:47.579Z,23.92
2023-02-02T18:40:14.868Z,35.70
2023-02-02T18:42:42.117Z,21.77
2023-02-02T18:45:09.781Z,10.98
2023-02-02T18:47:37.017Z,26.13
2023-02-02T18:50:04.886Z,13.25
2023-02-02T18:52:32.895Z,10.13
2023-02-02T18:55:01.472Z,8.52
2023-02-02T18:57:29.704Z,9.27
2023-02-02T18:59:56.941Z,14.40
2023-02-02T19:02:24.288Z,8.60
2023-02-02T19:04:51.601Z,10.02
2023-02-02T19:07:18.862Z,10.35
2023-02-02T19:09:46.140Z,11.85
2023-02-02T19:12:15.718Z,14.20
2023-02-02T19:14:42.908Z,12.35
2023-02-02T19:17:20.223Z,14.48
2023-02-02T19:19:48.589Z,11.02
2023-02-02T19:22:19.613Z,12.98
2023-02-02T19:24:47.414Z,32.97
2023-02-02T19:27:18.220Z,16.17
2023-02-02T19:29:46.864Z,9.68
2023-02-02T19:32:16.633Z,10.27
2023-02-02T19:34:44.459Z,10.63
2023-02-02T19:37:22.874Z,8.23
2023-02-02T19:39:50.653Z,9.90
2023-02-02T19:42:19.297Z,4.45
2023-02-02T19:44:46.603Z,8.57
2023-02-02T19:47:21.146Z,6.88
2023-02-02T19:49:48.316Z,11.02
2023-02-02T19:52:19.579Z,6.57
2023-02-02T19:54:47.058Z,8.10
2023-02-02T19:57:19.094Z,9.23
2023-02-02T19:59:49.681Z,11.40
2023-02-02T20:02:40.927Z,6.65
2023-02-02T20:05:18.278Z,7.30
2023-02-02T20:07:45.577Z,7.25
2023-02-02T20:10:19.581Z,5.28
2023-02-02T20:12:46.861Z,9.98
2023-02-02T20:15:31.388Z,6.70
2023-02-02T20:18:00.962Z,7.00
2023-02-02T20:20:31.201Z,12.10
2023-02-02T20:22:58.590Z,9.80
2023-02-02T20:25:26.063Z,9.50
2023-02-02T20:27:53.428Z,12.65
2023-02-02T20:30:25.596Z,9.63
2023-02-02T20:32:55.611Z,16.25
2023-02-02T20:35:28.847Z,14.30
2023-02-02T20:37:56.114Z,20.42
2023-02-02T20:40:26.410Z,47.45
2023-02-02T20:42:54.399Z,60.33
2023-02-02T20:45:24.922Z,36.90
2023-02-02T20:47:52.507Z,46.55
2023-02-02T20:50:21.657Z,16.38
2023-02-02T20:52:49.158Z,7.55
2023-02-02T20:55:16.482Z,7.97
2023-02-02T20:57:43.838Z,6.95
2023-02-02T21:00:14.366Z,7.05
2023-02-02T21:02:43.292Z,11.02
2023-02-02T21:05:10.627Z,9.25
2023-02-02T21:07:37.872Z,8.45
2023-02-02T21:10:05.635Z,6.78
2023-02-02T21:12:32.885Z,10.65
2023-02-02T21:15:00.142Z,7.05
2023-02-02T21:17:27.356Z,7.45
2023-02-02T21:19:56.119Z,6.88
2023-02-02T21:22:23.470Z,11.10
2023-02-02T21:24:50.708Z,6.88
2023-02-02T21:27:18.064Z,11.52
2023-02-02T21:29:45.430Z,6.85
2023-02-02T21:32:12.700Z,6.72
2023-02-02T21:34:39.938Z,9.10
2023-02-02T21:37:13.009Z,10.05
2023-02-02T21:39:41.173Z,9.25
2023-02-02T21:42:14.449Z,12.10
2023-02-02T21:44:44.136Z,6.88
2023-02-02T21:47:27.220Z,8.93
2023-02-02T21:49:55.862Z,13.23
2023-02-02T21:52:26.781Z,13.35
2023-02-02T21:54:53.971Z,7.70
2023-02-02T21:57:24.623Z,8.63
2023-02-02T21:59:55.122Z,9.02
2023-02-02T22:02:42.542Z,9.40
2023-02-02T22:05:16.669Z,5.68
2023-02-02T22:07:47.302Z,6.78
2023-02-02T22:10:39.822Z,6.95
2023-02-02T22:13:15.715Z,7.55
2023-02-02T22:15:44.200Z,11.25
2023-02-02T22:18:17.780Z,6.47
2023-02-02T22:20:45.906Z,18.05
2023-02-02T22:23:17.803Z,8.13
2023-02-02T22:25:46.908Z,13.45
2023-02-02T22:28:19.077Z,7.55
2023-02-02T22:30:46.980Z,6.68
2023-02-02T22:33:14.474Z,9.23
2023-02-02T22:35:42.427Z,12.32
2023-02-02T22:38:10.578Z,10.05
2023-02-02T22:40:39.158Z,7.65
2023-02-02T22:43:07.061Z,6.72
2023-02-02T22:45:35.025Z,14.13
2023-02-02T22:48:02.241Z,10.27
2023-02-02T22:50:31.673Z,10.55
2023-02-02T22:52:58.972Z,11.57
2023-02-02T22:55:26.163Z,7.65
2023-02-02T22:57:54.728Z,12.63
2023-02-02T23:00:24.009Z,11.70
2023-02-02T23:02:52.319Z,12.48
2023-02-02T23:05:21.042Z,10.07
2023-02-02T23:07:49.492Z,11.27
2023-02-02T23:10:18.962Z,10.25
2023-02-02T23:12:46.870Z,9.55
2023-02-02T23:15:16.180Z,10.43
2023-02-02T23:17:43.397Z,13.52
2023-02-02T23:20:12.990Z,11.57
2023-02-02T23:22:40.467Z,9.50
2023-02-02T23:25:08.319Z,10.73
2023-02-02T23:27:35.736Z,9.00
2023-02-02T23:30:03.759Z,12.68
2023-02-02T23:32:32.342Z,13.60
2023-02-02T23:34:59.576Z,15.07
2023-02-02T23:37:26.816Z,10.82
2023-02-02T23:39:54.019Z,14.27
2023-02-02T23:42:21.310Z,9.35
2023-02-02T23:44:48.574Z,9.73
2023-02-02T23:47:16.290Z,12.18
2023-02-02T23:49:45.674Z,9.60
2023-02-02T23:52:13.240Z,9.32
2023-02-02T23:54:40.637Z,10.50
2023-02-02T23:57:07.998Z,9.73
2023-02-02T23:59:35.223Z,11.90
